sensor_id;sensor_type;location;lat;lon;timestamp;temperature;humidity
30865;DHT22;17574;49.418;11.038;2023-02-28T00:00:11;-0.40;21.70
30865;DHT22;17574;49.418;11.038;2023-02-28T00:02:38;-0.40;22.10
30865;DHT22;17574;49.418;11.038;2023-02-28T00:05:06;-0.40;20.90
30865;DHT22;17574;49.418;11.038;2023-02-28T00:07:33;-0.50;21.30
30865;DHT22;17574;49.418;11.038;2023-02-28T00:09:59;-0.40;21.70
30865;DHT22;17574;49.418;11.038;2023-02-28T00:12:26;-0.40;20.70
30865;DHT22;17574;49.418;11.038;2023-02-28T00:14:53;-0.10;21.90
30865;DHT22;17574;49.418;11.038;2023-02-28T00:17:20;-0.50;21.60
30865;DHT22;17574;49.418;11.038;2023-02-28T00:19:47;-0.50;21.60
30865;DHT22;17574;49.418;11.038;2023-02-28T00:22:15;-0.50;21.60
30865;DHT22;17574;49.418;11.038;2023-02-28T00:24:42;-0.50;21.60
30865;DHT22;17574;49.418;11.038;2023-02-28T00:27:09;-0.60;21.60
30865;DHT22;17574;49.418;11.038;2023-02-28T00:29:36;-0.60;21.60
30865;DHT22;17574;49.418;11.038;2023-02-28T00:32:03;-0.60;21.60
30865;DHT22;17574;49.418;11.038;2023-02-28T00:34:30;-0.50;21.60
30865;DHT22;17574;49.418;11.038;2023-02-28T00:36:57;-0.60;21.60
30865;DHT22;17574;49.418;11.038;2023-02-28T00:39:23;-0.60;21.60
30865;DHT22;17574;49.418;11.038;2023-02-28T00:41:50;-0.20;22.20
30865;DHT22;17574;49.418;11.038;2023-02-28T00:44:17;-0.60;21.90
30865;DHT22;17574;49.418;11.038;2023-02-28T00:46:43;0.20;22.80
30865;DHT22;17574;49.418;11.038;2023-02-28T00:49:10;-0.60;22.40
30865;DHT22;17574;49.418;11.038;2023-02-28T00:51:37;-0.70;23.10
30865;DHT22;17574;49.418;11.038;2023-02-28T00:54:03;-0.60;23.60
30865;DHT22;17574;49.418;11.038;2023-02-28T00:56:30;-0.70;23.40
30865;DHT22;17574;49.418;11.038;2023-02-28T00:58:57;-0.70;23.50
30865;DHT22;17574;49.418;11.038;2023-02-28T01:01:23;-0.70;24.20
30865;DHT22;17574;49.418;11.038;2023-02-28T01:03:50;-0.70;24.10
30865;DHT22;17574;49.418;11.038;2023-02-28T01:06:16;-0.60;24.20
30865;DHT22;17574;49.418;11.038;2023-02-28T01:08:43;-0.60;24.20
30865;DHT22;17574;49.418;11.038;2023-02-28T01:11:11;-0.60;24.30
30865;DHT22;17574;49.418;11.038;2023-02-28T01:13:38;-0.60;24.20
30865;DHT22;17574;49.418;11.038;2023-02-28T01:16:05;-0.30;25.00
30865;DHT22;17574;49.418;11.038;2023-02-28T01:18:31;-0.60;25.00
30865;DHT22;17574;49.418;11.038;2023-02-28T01:21:02;-0.60;24.80
30865;DHT22;17574;49.418;11.038;2023-02-28T01:23:29;-0.60;24.70
30865;DHT22;17574;49.418;11.038;2023-02-28T01:25:56;-0.60;24.70
30865;DHT22;17574;49.418;11.038;2023-02-28T01:28:22;-0.70;24.60
30865;DHT22;17574;49.418;11.038;2023-02-28T01:30:50;-0.60;24.50
30865;DHT22;17574;49.418;11.038;2023-02-28T01:33:17;-0.60;25.10
30865;DHT22;17574;49.418;11.038;2023-02-28T01:35:43;-0.70;24.80
30865;DHT22;17574;49.418;11.038;2023-02-28T01:38:10;-0.70;25.20
30865;DHT22;17574;49.418;11.038;2023-02-28T01:40:47;-0.70;25.50
30865;DHT22;17574;49.418;11.038;2023-02-28T01:43:24;-0.70;25.50
30865;DHT22;17574;49.418;11.038;2023-02-28T01:45:52;-0.70;25.70
30865;DHT22;17574;49.418;11.038;2023-02-28T01:48:19;-0.60;25.40
30865;DHT22;17574;49.418;11.038;2023-02-28T01:50:47;-0.30;25.20
30865;DHT22;17574;49.418;11.038;2023-02-28T01:53:15;-0.70;25.80
30865;DHT22;17574;49.418;11.038;2023-02-28T01:55:45;-0.70;25.90
30865;DHT22;17574;49.418;11.038;2023-02-28T01:58:13;-0.70;25.80
30865;DHT22;17574;49.418;11.038;2023-02-28T02:00:40;-0.70;26.00
30865;DHT22;17574;49.418;11.038;2023-02-28T02:03:09;-0.60;26.20
30865;DHT22;17574;49.418;11.038;2023-02-28T02:05:38;-0.60;25.90
30865;DHT22;17574;49.418;11.038;2023-02-28T02:08:06;-0.60;25.80
30865;DHT22;17574;49.418;11.038;2023-02-28T02:10:44;-0.60;25.90
30865;DHT22;17574;49.418;11.038;2023-02-28T02:15:56;-0.70;26.30
30865;DHT22;17574;49.418;11.038;2023-02-28T02:18:33;-0.60;26.10
30865;DHT22;17574;49.418;11.038;2023-02-28T02:23:39;-0.70;25.90
30865;DHT22;17574;49.418;11.038;2023-02-28T02:26:18;-0.70;26.50
30865;DHT22;17574;49.418;11.038;2023-02-28T02:34:28;-0.70;27.50
30865;DHT22;17574;49.418;11.038;2023-02-28T02:37:03;-0.80;27.30
30865;DHT22;17574;49.418;11.038;2023-02-28T02:39:48;-0.80;27.30
30865;DHT22;17574;49.418;11.038;2023-02-28T02:42:27;-0.80;27.70
30865;DHT22;17574;49.418;11.038;2023-02-28T02:44:59;-0.80;27.70
30865;DHT22;17574;49.418;11.038;2023-02-28T02:47:27;-0.70;27.50
30865;DHT22;17574;49.418;11.038;2023-02-28T02:49:56;-0.30;29.10
30865;DHT22;17574;49.418;11.038;2023-02-28T02:52:27;-0.90;29.20
30865;DHT22;17574;49.418;11.038;2023-02-28T02:54:56;-0.90;28.90
30865;DHT22;17574;49.418;11.038;2023-02-28T02:57:25;-0.80;28.90
30865;DHT22;17574;49.418;11.038;2023-02-28T02:59:53;-0.90;29.00
30865;DHT22;17574;49.418;11.038;2023-02-28T03:02:21;-0.90;29.00
30865;DHT22;17574;49.418;11.038;2023-02-28T03:04:52;-0.90;29.70
30865;DHT22;17574;49.418;11.038;2023-02-28T03:07:20;-0.90;30.00
30865;DHT22;17574;49.418;11.038;2023-02-28T03:09:50;-0.30;30.40
30865;DHT22;17574;49.418;11.038;2023-02-28T03:12:17;-0.90;30.00
30865;DHT22;17574;49.418;11.038;2023-02-28T03:14:55;-0.90;30.00
30865;DHT22;17574;49.418;11.038;2023-02-28T03:25:27;-0.90;30.00
30865;DHT22;17574;49.418;11.038;2023-02-28T03:28:00;-0.90;30.00
30865;DHT22;17574;49.418;11.038;2023-02-28T03:30:33;-0.90;30.00
30865;DHT22;17574;49.418;11.038;2023-02-28T03:33:03;-0.90;30.00
30865;DHT22;17574;49.418;11.038;2023-02-28T03:35:36;-0.50;30.20
30865;DHT22;17574;49.418;11.038;2023-02-28T03:38:09;-1.30;29.90
30865;DHT22;17574;49.418;11.038;2023-02-28T03:40:41;-0.90;30.00
30865;DHT22;17574;49.418;11.038;2023-02-28T03:43:10;-0.60;30.20
30865;DHT22;17574;49.418;11.038;2023-02-28T03:45:39;-0.90;30.00
30865;DHT22;17574;49.418;11.038;2023-02-28T03:48:09;-0.30;30.50
30865;DHT22;17574;49.418;11.038;2023-02-28T03:50:41;-0.50;30.20
30865;DHT22;17574;49.418;11.038;2023-02-28T03:55:47;-0.30;31.70
30865;DHT22;17574;49.418;11.038;2023-02-28T03:58:16;-0.90;31.50
30865;DHT22;17574;49.418;11.038;2023-02-28T04:00:48;-0.90;31.40
30865;DHT22;17574;49.418;11.038;2023-02-28T04:03:15;-0.90;31.30
30865;DHT22;17574;49.418;11.038;2023-02-28T04:05:50;-0.90;31.40
30865;DHT22;17574;49.418;11.038;2023-02-28T04:08:16;-0.90;30.00
30865;DHT22;17574;49.418;11.038;2023-02-28T04:10:43;-0.90;31.40
30865;DHT22;17574;49.418;11.038;2023-02-28T04:13:11;-0.90;31.20
30865;DHT22;17574;49.418;11.038;2023-02-28T04:15:38;-0.90;30.70
30865;DHT22;17574;49.418;11.038;2023-02-28T04:18:04;-0.90;31.40
30865;DHT22;17574;49.418;11.038;2023-02-28T04:20:32;-1.00;31.10
30865;DHT22;17574;49.418;11.038;2023-02-28T04:22:59;-0.70;31.10
30865;DHT22;17574;49.418;11.038;2023-02-28T04:25:25;-0.90;31.10
30865;DHT22;17574;49.418;11.038;2023-02-28T04:27:52;-0.90;30.80
30865;DHT22;17574;49.418;11.038;2023-02-28T04:30:19;-0.90;30.60
30865;DHT22;17574;49.418;11.038;2023-02-28T04:32:45;-0.80;32.10
30865;DHT22;17574;49.418;11.038;2023-02-28T04:35:12;-0.90;31.80
30865;DHT22;17574;49.418;11.038;2023-02-28T04:37:39;-0.90;31.40
30865;DHT22;17574;49.418;11.038;2023-02-28T04:40:06;-0.90;31.60
30865;DHT22;17574;49.418;11.038;2023-02-28T04:42:32;-0.90;31.90
30865;DHT22;17574;49.418;11.038;2023-02-28T04:45:03;-0.90;32.00
30865;DHT22;17574;49.418;11.038;2023-02-28T04:47:30;-0.90;31.80
30865;DHT22;17574;49.418;11.038;2023-02-28T04:49:56;-0.90;31.90
30865;DHT22;17574;49.418;11.038;2023-02-28T04:52:23;-0.80;32.30
30865;DHT22;17574;49.418;11.038;2023-02-28T04:54:50;-0.80;32.80
30865;DHT22;17574;49.418;11.038;2023-02-28T04:57:17;-0.80;31.70
30865;DHT22;17574;49.418;11.038;2023-02-28T04:59:43;-0.90;31.80
30865;DHT22;17574;49.418;11.038;2023-02-28T05:02:10;-0.10;32.20
30865;DHT22;17574;49.418;11.038;2023-02-28T05:04:37;-0.80;32.20
30865;DHT22;17574;49.418;11.038;2023-02-28T05:07:04;-0.90;31.80
30865;DHT22;17574;49.418;11.038;2023-02-28T05:09:30;-0.90;31.80
30865;DHT22;17574;49.418;11.038;2023-02-28T05:11:59;-0.90;32.40
30865;DHT22;17574;49.418;11.038;2023-02-28T05:14:25;-0.90;32.10
30865;DHT22;17574;49.418;11.038;2023-02-28T05:16:52;-0.90;32.30
30865;DHT22;17574;49.418;11.038;2023-02-28T05:19:19;-0.90;32.10
30865;DHT22;17574;49.418;11.038;2023-02-28T05:21:49;-0.90;32.50
30865;DHT22;17574;49.418;11.038;2023-02-28T05:24:16;-0.80;32.90
30865;DHT22;17574;49.418;11.038;2023-02-28T05:26:49;-0.80;33.10
30865;DHT22;17574;49.418;11.038;2023-02-28T05:29:17;-0.80;32.80
30865;DHT22;17574;49.418;11.038;2023-02-28T05:31:44;-0.80;32.60
30865;DHT22;17574;49.418;11.038;2023-02-28T05:34:10;-0.60;33.00
30865;DHT22;17574;49.418;11.038;2023-02-28T05:36:39;-0.90;32.60
30865;DHT22;17574;49.418;11.038;2023-02-28T05:39:06;-0.70;33.80
30865;DHT22;17574;49.418;11.038;2023-02-28T05:41:33;-0.90;32.90
30865;DHT22;17574;49.418;11.038;2023-02-28T05:44:00;-0.90;33.00
30865;DHT22;17574;49.418;11.038;2023-02-28T05:46:27;-0.40;33.10
30865;DHT22;17574;49.418;11.038;2023-02-28T05:48:54;-0.90;33.00
30865;DHT22;17574;49.418;11.038;2023-02-28T05:51:22;-0.90;33.00
30865;DHT22;17574;49.418;11.038;2023-02-28T05:53:48;-0.30;34.00
30865;DHT22;17574;49.418;11.038;2023-02-28T05:56:15;-0.90;33.00
30865;DHT22;17574;49.418;11.038;2023-02-28T05:58:42;-0.90;32.90
30865;DHT22;17574;49.418;11.038;2023-02-28T06:03:49;-0.90;32.50
30865;DHT22;17574;49.418;11.038;2023-02-28T06:06:15;-0.90;32.70
30865;DHT22;17574;49.418;11.038;2023-02-28T06:08:42;-0.90;32.50
30865;DHT22;17574;49.418;11.038;2023-02-28T06:11:11;-0.90;32.90
30865;DHT22;17574;49.418;11.038;2023-02-28T06:13:38;-0.90;32.70
30865;DHT22;17574;49.418;11.038;2023-02-28T06:16:04;-0.20;33.40
30865;DHT22;17574;49.418;11.038;2023-02-28T06:18:31;-0.80;32.40
30865;DHT22;17574;49.418;11.038;2023-02-28T06:20:58;-0.80;32.40
30865;DHT22;17574;49.418;11.038;2023-02-28T06:23:25;-0.80;32.10
30865;DHT22;17574;49.418;11.038;2023-02-28T06:25:51;-0.40;32.20
30865;DHT22;17574;49.418;11.038;2023-02-28T06:28:19;-0.30;31.80
30865;DHT22;17574;49.418;11.038;2023-02-28T06:30:46;-0.70;30.60
30865;DHT22;17574;49.418;11.038;2023-02-28T06:33:12;-0.70;30.30
30865;DHT22;17574;49.418;11.038;2023-02-28T06:35:39;-0.60;30.20
30865;DHT22;17574;49.418;11.038;2023-02-28T06:38:06;-0.60;30.10
30865;DHT22;17574;49.418;11.038;2023-02-28T06:40:32;-0.50;29.50
30865;DHT22;17574;49.418;11.038;2023-02-28T06:43:01;-0.20;28.60
30865;DHT22;17574;49.418;11.038;2023-02-28T06:45:28;-0.30;28.10
30865;DHT22;17574;49.418;11.038;2023-02-28T06:47:54;-0.30;27.20
30865;DHT22;17574;49.418;11.038;2023-02-28T06:50:21;-0.30;26.30
30865;DHT22;17574;49.418;11.038;2023-02-28T06:52:48;-0.30;26.20
30865;DHT22;17574;49.418;11.038;2023-02-28T06:55:14;-0.20;25.90
30865;DHT22;17574;49.418;11.038;2023-02-28T06:57:41;0.20;24.50
30865;DHT22;17574;49.418;11.038;2023-02-28T07:00:08;0.60;20.40
30865;DHT22;17574;49.418;11.038;2023-02-28T07:02:35;0.70;18.00
30865;DHT22;17574;49.418;11.038;2023-02-28T07:05:03;1.00;16.20
30865;DHT22;17574;49.418;11.038;2023-02-28T07:07:29;1.40;14.00
30865;DHT22;17574;49.418;11.038;2023-02-28T07:09:56;1.70;12.60
30865;DHT22;17574;49.418;11.038;2023-02-28T07:12:23;2.60;10.10
30865;DHT22;17574;49.418;11.038;2023-02-28T07:14:49;2.30;5.30
30865;DHT22;17574;49.418;11.038;2023-02-28T07:17:16;2.80;4.50
30865;DHT22;17574;49.418;11.038;2023-02-28T07:19:43;3.00;1.00
30865;DHT22;17574;49.418;11.038;2023-02-28T07:22:09;3.90;1.00
30865;DHT22;17574;49.418;11.038;2023-02-28T07:24:36;3.90;1.00
30865;DHT22;17574;49.418;11.038;2023-02-28T07:27:03;3.90;1.00
30865;DHT22;17574;49.418;11.038;2023-02-28T07:29:30;3.90;1.00
30865;DHT22;17574;49.418;11.038;2023-02-28T07:31:56;4.70;1.00
30865;DHT22;17574;49.418;11.038;2023-02-28T07:34:23;4.00;1.00
30865;DHT22;17574;49.418;11.038;2023-02-28T07:36:52;4.20;1.00
30865;DHT22;17574;49.418;11.038;2023-02-28T07:39:20;4.30;1.00
30865;DHT22;17574;49.418;11.038;2023-02-28T07:41:47;4.30;1.00
30865;DHT22;17574;49.418;11.038;2023-02-28T07:44:14;4.70;1.00
30865;DHT22;17574;49.418;11.038;2023-02-28T07:46:40;5.50;1.00
30865;DHT22;17574;49.418;11.038;2023-02-28T07:49:07;5.50;1.00
30865;DHT22;17574;49.418;11.038;2023-02-28T07:51:34;5.70;1.00
30865;DHT22;17574;49.418;11.038;2023-02-28T07:54:00;6.10;1.00
30865;DHT22;17574;49.418;11.038;2023-02-28T07:56:27;6.70;1.00
30865;DHT22;17574;49.418;11.038;2023-02-28T07:58:54;7.60;1.00
30865;DHT22;17574;49.418;11.038;2023-02-28T08:01:21;8.00;1.00
30865;DHT22;17574;49.418;11.038;2023-02-28T08:03:48;8.60;1.00
30865;DHT22;17574;49.418;11.038;2023-02-28T08:06:19;8.90;1.00
30865;DHT22;17574;49.418;11.038;2023-02-28T08:08:46;8.90;1.00
30865;DHT22;17574;49.418;11.038;2023-02-28T08:11:13;8.70;1.00
30865;DHT22;17574;49.418;11.038;2023-02-28T08:13:40;8.50;1.00
30865;DHT22;17574;49.418;11.038;2023-02-28T08:16:08;8.20;1.00
30865;DHT22;17574;49.418;11.038;2023-02-28T08:18:35;8.70;1.00
30865;DHT22;17574;49.418;11.038;2023-02-28T08:21:05;9.00;1.00
30865;DHT22;17574;49.418;11.038;2023-02-28T08:23:32;9.10;1.00
30865;DHT22;17574;49.418;11.038;2023-02-28T08:25:59;9.60;1.00
30865;DHT22;17574;49.418;11.038;2023-02-28T08:28:26;9.40;1.00
30865;DHT22;17574;49.418;11.038;2023-02-28T08:30:53;9.80;1.00
30865;DHT22;17574;49.418;11.038;2023-02-28T08:33:20;9.80;1.00
30865;DHT22;17574;49.418;11.038;2023-02-28T08:35:47;9.70;1.00
30865;DHT22;17574;49.418;11.038;2023-02-28T08:38:13;10.10;1.00
30865;DHT22;17574;49.418;11.038;2023-02-28T08:40:40;10.30;1.00
30865;DHT22;17574;49.418;11.038;2023-02-28T08:43:07;10.30;1.00
30865;DHT22;17574;49.418;11.038;2023-02-28T08:45:33;10.00;1.00
30865;DHT22;17574;49.418;11.038;2023-02-28T08:48:00;10.30;1.00
30865;DHT22;17574;49.418;11.038;2023-02-28T08:50:27;10.50;1.00
30865;DHT22;17574;49.418;11.038;2023-02-28T08:52:53;10.40;1.00
30865;DHT22;17574;49.418;11.038;2023-02-28T08:55:20;10.40;1.00
30865;DHT22;17574;49.418;11.038;2023-02-28T08:57:47;11.00;1.00
30865;DHT22;17574;49.418;11.038;2023-02-28T09:00:13;11.40;1.00
30865;DHT22;17574;49.418;11.038;2023-02-28T09:02:40;11.30;1.00
30865;DHT22;17574;49.418;11.038;2023-02-28T09:05:09;11.60;1.00
30865;DHT22;17574;49.418;11.038;2023-02-28T09:07:35;12.60;1.00
30865;DHT22;17574;49.418;11.038;2023-02-28T09:10:02;13.10;1.00
30865;DHT22;17574;49.418;11.038;2023-02-28T09:12:31;13.70;1.00
30865;DHT22;17574;49.418;11.038;2023-02-28T09:14:58;13.50;1.00
30865;DHT22;17574;49.418;11.038;2023-02-28T09:17:25;13.60;1.00
30865;DHT22;17574;49.418;11.038;2023-02-28T09:19:56;14.20;1.00
30865;DHT22;17574;49.418;11.038;2023-02-28T09:22:23;15.10;1.00
30865;DHT22;17574;49.418;11.038;2023-02-28T09:24:50;15.80;1.00
30865;DHT22;17574;49.418;11.038;2023-02-28T09:27:16;15.90;1.00
30865;DHT22;17574;49.418;11.038;2023-02-28T09:29:43;16.30;1.00
30865;DHT22;17574;49.418;11.038;2023-02-28T09:32:10;15.30;1.00
30865;DHT22;17574;49.418;11.038;2023-02-28T09:34:37;15.20;1.00
30865;DHT22;17574;49.418;11.038;2023-02-28T09:37:04;15.40;1.00
30865;DHT22;17574;49.418;11.038;2023-02-28T09:39:30;16.30;1.00
30865;DHT22;17574;49.418;11.038;2023-02-28T09:41:58;16.00;1.00
30865;DHT22;17574;49.418;11.038;2023-02-28T09:46:57;16.30;1.00
30865;DHT22;17574;49.418;11.038;2023-02-28T09:49:28;17.00;1.00
30865;DHT22;17574;49.418;11.038;2023-02-28T09:52:02;17.20;1.00
30865;DHT22;17574;49.418;11.038;2023-02-28T09:54:30;16.80;1.00
30865;DHT22;17574;49.418;11.038;2023-02-28T10:09:55;18.10;1.00
30865;DHT22;17574;49.418;11.038;2023-02-28T10:12:23;17.90;1.00
30865;DHT22;17574;49.418;11.038;2023-02-28T10:14:52;17.90;1.00
30865;DHT22;17574;49.418;11.038;2023-02-28T10:17:25;18.80;1.00
30865;DHT22;17574;49.418;11.038;2023-02-28T10:22:26;19.40;1.00
30865;DHT22;17574;49.418;11.038;2023-02-28T10:24:55;20.30;1.00
30865;DHT22;17574;49.418;11.038;2023-02-28T10:27:31;20.00;1.00
30865;DHT22;17574;49.418;11.038;2023-02-28T10:29:59;19.50;1.00
30865;DHT22;17574;49.418;11.038;2023-02-28T10:34:57;18.30;1.00
30865;DHT22;17574;49.418;11.038;2023-02-28T10:37:26;18.90;1.00
30865;DHT22;17574;49.418;11.038;2023-02-28T10:39:53;19.20;1.00
30865;DHT22;17574;49.418;11.038;2023-02-28T10:44:46;19.40;1.00
30865;DHT22;17574;49.418;11.038;2023-02-28T10:47:16;19.80;1.00
30865;DHT22;17574;49.418;11.038;2023-02-28T10:49:48;19.80;1.00
30865;DHT22;17574;49.418;11.038;2023-02-28T10:52:31;19.70;1.00
30865;DHT22;17574;49.418;11.038;2023-02-28T10:55:13;19.50;1.00
30865;DHT22;17574;49.418;11.038;2023-02-28T10:57:40;20.40;1.00
30865;DHT22;17574;49.418;11.038;2023-02-28T11:00:13;20.60;1.00
30865;DHT22;17574;49.418;11.038;2023-02-28T11:02:41;20.90;1.00
30865;DHT22;17574;49.418;11.038;2023-02-28T11:07:56;19.40;1.00
30865;DHT22;17574;49.418;11.038;2023-02-28T11:10:24;19.00;1.00
30865;DHT22;17574;49.418;11.038;2023-02-28T11:12:54;18.50;1.00
30865;DHT22;17574;49.418;11.038;2023-02-28T11:15:22;18.60;1.00
30865;DHT22;17574;49.418;11.038;2023-02-28T11:17:55;18.30;1.00
30865;DHT22;17574;49.418;11.038;2023-02-28T11:20:23;17.70;1.00
30865;DHT22;17574;49.418;11.038;2023-02-28T11:22:50;17.60;1.00
30865;DHT22;17574;49.418;11.038;2023-02-28T11:25:28;17.40;1.00
30865;DHT22;17574;49.418;11.038;2023-02-28T11:27:58;17.70;1.00
30865;DHT22;17574;49.418;11.038;2023-02-28T11:30:38;18.10;1.00
30865;DHT22;17574;49.418;11.038;2023-02-28T11:33:18;18.30;1.00
30865;DHT22;17574;49.418;11.038;2023-02-28T11:35:47;18.60;1.00
30865;DHT22;17574;49.418;11.038;2023-02-28T11:38:14;18.00;1.00
30865;DHT22;17574;49.418;11.038;2023-02-28T11:40:43;18.20;1.00
30865;DHT22;17574;49.418;11.038;2023-02-28T11:43:22;17.40;1.00
30865;DHT22;17574;49.418;11.038;2023-02-28T11:48:42;17.40;1.00
30865;DHT22;17574;49.418;11.038;2023-02-28T11:51:21;16.90;1.00
30865;DHT22;17574;49.418;11.038;2023-02-28T11:53:51;16.90;1.00
30865;DHT22;17574;49.418;11.038;2023-02-28T11:59:18;15.90;1.00
30865;DHT22;17574;49.418;11.038;2023-02-28T12:01:58;15.90;1.00
30865;DHT22;17574;49.418;11.038;2023-02-28T12:07:18;16.70;1.00
30865;DHT22;17574;49.418;11.038;2023-02-28T12:09:51;16.30;1.00
30865;DHT22;17574;49.418;11.038;2023-02-28T12:12:22;16.50;1.00
30865;DHT22;17574;49.418;11.038;2023-02-28T12:14:57;16.30;1.00
30865;DHT22;17574;49.418;11.038;2023-02-28T12:17:34;16.70;1.00
30865;DHT22;17574;49.418;11.038;2023-02-28T12:28:06;18.20;1.00
30865;DHT22;17574;49.418;11.038;2023-02-28T12:30:35;18.10;1.00
30865;DHT22;17574;49.418;11.038;2023-02-28T12:33:04;18.10;1.00
30865;DHT22;17574;49.418;11.038;2023-02-28T12:35:33;18.60;1.00
30865;DHT22;17574;49.418;11.038;2023-02-28T12:38:12;19.20;1.00
30865;DHT22;17574;49.418;11.038;2023-02-28T12:40:42;19.60;1.00
30865;DHT22;17574;49.418;11.038;2023-02-28T12:43:09;19.90;1.00
30865;DHT22;17574;49.418;11.038;2023-02-28T12:48:10;18.90;1.00
30865;DHT22;17574;49.418;11.038;2023-02-28T12:50:37;19.20;1.00
30865;DHT22;17574;49.418;11.038;2023-02-28T12:53:18;18.60;1.00
30865;DHT22;17574;49.418;11.038;2023-02-28T12:55:52;18.60;1.00
30865;DHT22;17574;49.418;11.038;2023-02-28T13:00:57;18.30;1.00
30865;DHT22;17574;49.418;11.038;2023-02-28T13:13:58;17.60;1.00
30865;DHT22;17574;49.418;11.038;2023-02-28T13:16:24;17.80;1.00
30865;DHT22;17574;49.418;11.038;2023-02-28T13:18:51;17.90;1.00
30865;DHT22;17574;49.418;11.038;2023-02-28T13:21:23;17.90;1.00
30865;DHT22;17574;49.418;11.038;2023-02-28T13:28:59;17.90;1.00
30865;DHT22;17574;49.418;11.038;2023-02-28T13:31:26;16.80;1.00
30865;DHT22;17574;49.418;11.038;2023-02-28T13:38:55;15.20;1.00
30865;DHT22;17574;49.418;11.038;2023-02-28T13:46:35;14.70;1.00
30865;DHT22;17574;49.418;11.038;2023-02-28T13:51:48;14.10;1.00
30865;DHT22;17574;49.418;11.038;2023-02-28T14:02:28;14.10;1.00
30865;DHT22;17574;49.418;11.038;2023-02-28T14:05:04;15.30;1.00
30865;DHT22;17574;49.418;11.038;2023-02-28T14:07:48;15.70;1.00
30865;DHT22;17574;49.418;11.038;2023-02-28T14:10:26;15.90;1.00
30865;DHT22;17574;49.418;11.038;2023-02-28T14:17:54;13.20;1.00
30865;DHT22;17574;49.418;11.038;2023-02-28T14:20:21;12.80;1.00
30865;DHT22;17574;49.418;11.038;2023-02-28T14:22:52;12.20;1.00
30865;DHT22;17574;49.418;11.038;2023-02-28T14:25:33;11.60;1.00
30865;DHT22;17574;49.418;11.038;2023-02-28T14:28:14;11.30;1.00
30865;DHT22;17574;49.418;11.038;2023-02-28T14:38:25;10.50;1.00
30865;DHT22;17574;49.418;11.038;2023-02-28T14:40:55;10.40;1.00
30865;DHT22;17574;49.418;11.038;2023-02-28T14:43:23;10.50;1.00
30865;DHT22;17574;49.418;11.038;2023-02-28T14:45:51;10.40;1.00
30865;DHT22;17574;49.418;11.038;2023-02-28T14:48:19;10.00;1.00
30865;DHT22;17574;49.418;11.038;2023-02-28T14:50:51;9.60;1.00
30865;DHT22;17574;49.418;11.038;2023-02-28T14:53:18;9.50;1.00
30865;DHT22;17574;49.418;11.038;2023-02-28T14:55:46;9.60;1.00
30865;DHT22;17574;49.418;11.038;2023-02-28T14:58:26;9.70;1.00
30865;DHT22;17574;49.418;11.038;2023-02-28T15:00:55;9.80;1.00
30865;DHT22;17574;49.418;11.038;2023-02-28T15:03:24;9.80;1.00
30865;DHT22;17574;49.418;11.038;2023-02-28T15:05:52;9.60;1.00
30865;DHT22;17574;49.418;11.038;2023-02-28T15:08:20;9.60;1.00
30865;DHT22;17574;49.418;11.038;2023-02-28T15:10:51;9.50;1.00
30865;DHT22;17574;49.418;11.038;2023-02-28T15:13:20;9.10;1.00
30865;DHT22;17574;49.418;11.038;2023-02-28T15:21:06;8.80;1.00
30865;DHT22;17574;49.418;11.038;2023-02-28T15:23:34;8.80;1.00
30865;DHT22;17574;49.418;11.038;2023-02-28T15:26:02;8.80;1.00
30865;DHT22;17574;49.418;11.038;2023-02-28T15:28:29;8.70;1.00
30865;DHT22;17574;49.418;11.038;2023-02-28T15:31:00;8.60;1.00
30865;DHT22;17574;49.418;11.038;2023-02-28T15:33:28;8.60;1.00
30865;DHT22;17574;49.418;11.038;2023-02-28T15:38:54;8.50;1.00
30865;DHT22;17574;49.418;11.038;2023-02-28T15:41:35;8.50;1.00
30865;DHT22;17574;49.418;11.038;2023-02-28T15:44:14;8.50;1.00
30865;DHT22;17574;49.418;11.038;2023-02-28T15:46:43;8.40;1.00
30865;DHT22;17574;49.418;11.038;2023-02-28T15:49:17;8.50;1.00
30865;DHT22;17574;49.418;11.038;2023-02-28T15:51:45;8.30;1.00
30865;DHT22;17574;49.418;11.038;2023-02-28T15:54:22;8.20;1.00
30865;DHT22;17574;49.418;11.038;2023-02-28T15:56:51;8.00;1.00
30865;DHT22;17574;49.418;11.038;2023-02-28T15:59:26;7.90;1.00
30865;DHT22;17574;49.418;11.038;2023-02-28T16:02:10;7.70;1.00
30865;DHT22;17574;49.418;11.038;2023-02-28T16:04:53;7.40;1.00
30865;DHT22;17574;49.418;11.038;2023-02-28T16:07:20;7.20;1.00
30865;DHT22;17574;49.418;11.038;2023-02-28T16:09:47;6.90;1.00
30865;DHT22;17574;49.418;11.038;2023-02-28T16:12:14;6.80;1.00
30865;DHT22;17574;49.418;11.038;2023-02-28T16:14:41;6.60;1.00
30865;DHT22;17574;49.418;11.038;2023-02-28T16:17:42;6.50;1.00
30865;DHT22;17574;49.418;11.038;2023-02-28T16:20:05;6.40;1.00
30865;DHT22;17574;49.418;11.038;2023-02-28T16:22:32;6.20;1.00
30865;DHT22;17574;49.418;11.038;2023-02-28T16:24:58;6.20;1.00
30865;DHT22;17574;49.418;11.038;2023-02-28T16:27:30;6.10;1.00
30865;DHT22;17574;49.418;11.038;2023-02-28T16:29:57;6.10;1.00
30865;DHT22;17574;49.418;11.038;2023-02-28T16:32:24;6.00;1.00
30865;DHT22;17574;49.418;11.038;2023-02-28T16:34:51;5.90;1.00
30865;DHT22;17574;49.418;11.038;2023-02-28T16:37:18;5.70;1.00
30865;DHT22;17574;49.418;11.038;2023-02-28T16:39:45;5.60;1.00
30865;DHT22;17574;49.418;11.038;2023-02-28T16:42:16;5.60;1.00
30865;DHT22;17574;49.418;11.038;2023-02-28T16:44:44;5.60;1.00
30865;DHT22;17574;49.418;11.038;2023-02-28T16:47:12;5.50;1.00
30865;DHT22;17574;49.418;11.038;2023-02-28T16:49:39;5.40;1.00
30865;DHT22;17574;49.418;11.038;2023-02-28T16:52:11;5.40;1.00
30865;DHT22;17574;49.418;11.038;2023-02-28T16:54:38;5.40;1.00
30865;DHT22;17574;49.418;11.038;2023-02-28T16:57:05;5.90;1.00
30865;DHT22;17574;49.418;11.038;2023-02-28T16:59:32;5.30;1.00
30865;DHT22;17574;49.418;11.038;2023-02-28T17:01:59;5.30;1.00
30865;DHT22;17574;49.418;11.038;2023-02-28T17:04:26;5.30;1.00
30865;DHT22;17574;49.418;11.038;2023-02-28T17:06:53;5.20;1.00
30865;DHT22;17574;49.418;11.038;2023-02-28T17:09:20;5.10;1.00
30865;DHT22;17574;49.418;11.038;2023-02-28T17:11:53;5.10;1.00
30865;DHT22;17574;49.418;11.038;2023-02-28T17:14:21;5.20;1.00
30865;DHT22;17574;49.418;11.038;2023-02-28T17:16:49;4.90;1.00
30865;DHT22;17574;49.418;11.038;2023-02-28T17:19:17;4.30;1.00
30865;DHT22;17574;49.418;11.038;2023-02-28T17:21:45;4.70;1.00
30865;DHT22;17574;49.418;11.038;2023-02-28T17:24:11;4.60;1.00
30865;DHT22;17574;49.418;11.038;2023-02-28T17:26:42;4.60;1.00
30865;DHT22;17574;49.418;11.038;2023-02-28T17:29:16;4.60;1.00
30865;DHT22;17574;49.418;11.038;2023-02-28T17:31:43;4.60;1.00
30865;DHT22;17574;49.418;11.038;2023-02-28T17:34:10;4.60;1.00
30865;DHT22;17574;49.418;11.038;2023-02-28T17:36:37;4.50;1.00
30865;DHT22;17574;49.418;11.038;2023-02-28T17:39:04;4.50;1.00
30865;DHT22;17574;49.418;11.038;2023-02-28T17:41:35;4.40;1.00
30865;DHT22;17574;49.418;11.038;2023-02-28T17:44:01;4.40;1.00
30865;DHT22;17574;49.418;11.038;2023-02-28T17:46:29;4.20;1.00